Time;durP1;ratioP1;P1;durP2;ratioP2;P2;SDS_P1;SDS_P2;PMS_P1;PMS_P2;Temp;Humidity;BMP_temperature;BMP_pressure;BME280_temperature;BME280_humidity;BME280_pressure;Samples;Min_cycle;Max_cycle;Signal;HPM_P1;HPM_P2
2023/07/08 00:03:25;;;;;;;8.18;5.13;;;;;15.60;96694.00;;;;8293111;28;20201;-72
2023/07/08 00:07:31;;;;;;;10.98;5.18;;;;;15.60;96685.00;;;;8312403;28;20204;-73
2023/07/08 00:11:35;;;;;;;6.53;4.45;;;;;15.60;96675.00;;;;8311269;28;20651;-71
2023/07/08 00:15:42;;;;;;;9.20;4.80;;;;;15.60;96674.00;;;;8296261;28;20553;-70
2023/07/08 00:19:45;;;;;;;7.20;4.82;;;;;15.60;96668.00;;;;8307688;28;20702;-71
2023/07/08 00:23:50;;;;;;;6.45;4.13;;;;;15.70;96672.00;;;;8305393;28;20730;-72
2023/07/08 00:27:55;;;;;;;6.53;4.68;;;;;15.80;96677.00;;;;8309477;28;20207;-72
2023/07/08 00:32:01;;;;;;;8.40;5.47;;;;;15.70;96685.00;;;;8308618;28;20754;-71
2023/07/08 00:36:11;;;;;;;9.55;5.63;;;;;15.70;96684.00;;;;8312493;28;20236;-71
2023/07/08 00:40:25;;;;;;;7.22;5.10;;;;;15.60;96684.00;;;;8297341;28;20317;-71
2023/07/08 00:44:32;;;;;;;7.22;4.50;;;;;15.60;96680.00;;;;8313447;28;20202;-71
2023/07/08 00:48:37;;;;;;;9.52;5.65;;;;;15.60;96679.00;;;;8316389;28;20292;-70
2023/07/08 00:52:41;;;;;;;8.32;4.95;;;;;15.60;96681.00;;;;8305450;28;20688;-70
2023/07/08 00:56:50;;;;;;;8.68;5.82;;;;;15.60;96679.00;;;;8306320;28;20643;-71
2023/07/08 01:01:00;;;;;;;6.43;4.93;;;;;15.70;96683.00;;;;8302666;28;20233;-70
2023/07/08 01:05:08;;;;;;;10.20;5.07;;;;;15.90;96677.00;;;;8315905;28;20209;-72
2023/07/08 01:09:16;;;;;;;7.97;5.22;;;;;16.00;96679.00;;;;8297180;28;20301;-71
2023/07/08 01:13:20;;;;;;;8.43;4.90;;;;;16.10;96675.00;;;;8314033;28;20198;-71
2023/07/08 01:17:32;;;;;;;8.63;4.90;;;;;16.10;96670.00;;;;8309500;28;20214;-72
2023/07/08 01:21:41;;;;;;;7.88;5.05;;;;;16.10;96665.00;;;;8313800;28;20608;-72
2023/07/08 01:25:49;;;;;;;6.95;4.72;;;;;15.90;96658.00;;;;8306717;28;20205;-72
2023/07/08 01:29:52;;;;;;;8.00;4.80;;;;;15.90;96655.00;;;;8297972;28;20295;-71
2023/07/08 01:34:02;;;;;;;9.20;5.15;;;;;15.80;96657.00;;;;8318189;28;20725;-72
2023/07/08 01:38:09;;;;;;;7.28;4.63;;;;;15.80;96657.00;;;;8294846;28;20993;-72
2023/07/08 01:42:15;;;;;;;9.30;5.13;;;;;15.80;96650.00;;;;8309836;28;20687;-70
2023/07/08 01:46:28;;;;;;;7.72;4.95;;;;;16.20;96651.00;;;;8310424;28;20213;-73
2023/07/08 01:50:37;;;;;;;9.32;5.32;;;;;16.70;96653.00;;;;8312763;28;20233;-72
2023/07/08 01:54:42;;;;;;;8.73;4.95;;;;;16.70;96656.00;;;;8315686;28;20285;-72
2023/07/08 01:58:47;;;;;;;7.57;5.03;;;;;16.40;96655.00;;;;8309572;28;20555;-71
2023/07/08 02:02:53;;;;;;;6.78;4.95;;;;;16.10;96656.00;;;;8317044;28;20292;-72
2023/07/08 02:06:59;;;;;;;9.05;5.28;;;;;15.80;96656.00;;;;8308820;28;20263;-71
2023/07/08 02:11:04;;;;;;;7.97;4.78;;;;;15.60;96654.00;;;;8308488;28;20227;-72
2023/07/08 02:15:14;;;;;;;7.38;5.18;;;;;15.40;96659.00;;;;8309420;28;20210;-71
2023/07/08 02:19:17;;;;;;;8.60;5.32;;;;;15.30;96655.00;;;;8302372;28;20233;-70
2023/07/08 02:23:21;;;;;;;9.50;5.75;;;;;15.30;96660.00;;;;8315711;28;20209;-72
2023/07/08 02:27:26;;;;;;;10.82;5.22;;;;;15.30;96661.00;;;;8300048;28;20304;-71
2023/07/08 02:31:31;;;;;;;9.82;5.07;;;;;15.20;96645.00;;;;8304897;28;20288;-72
2023/07/08 02:35:35;;;;;;;10.18;5.65;;;;;15.30;96649.00;;;;8300814;28;20869;-72
2023/07/08 02:39:38;;;;;;;6.88;5.03;;;;;15.20;96651.00;;;;8306918;28;20252;-72
2023/07/08 02:43:44;;;;;;;8.07;5.57;;;;;15.10;96650.00;;;;8306809;28;20242;-72
2023/07/08 02:47:48;;;;;;;8.52;4.72;;;;;15.10;96651.00;;;;8297663;28;20233;-72
2023/07/08 02:51:53;;;;;;;7.93;5.78;;;;;15.00;96652.00;;;;8301748;28;20713;-70
2023/07/08 02:55:57;;;;;;;9.93;6.03;;;;;14.90;96653.00;;;;8312076;28;20299;-72
2023/07/08 03:00:00;;;;;;;8.30;5.13;;;;;14.80;96641.00;;;;8307906;28;20243;-71
2023/07/08 03:04:14;;;;;;;8.52;5.55;;;;;14.70;96645.00;;;;8381322;22;20240;-70
2023/07/08 03:08:35;;;;;;;10.80;5.32;;;;;14.70;96644.00;;;;8358435;28;20292;-71
2023/07/08 03:12:38;;;;;;;6.57;5.00;;;;;14.60;96649.00;;;;8351791;28;20319;-71
2023/07/08 03:16:42;;;;;;;10.85;5.40;;;;;14.50;96645.00;;;;8364735;28;20910;-71
2023/07/08 03:20:51;;;;;;;7.78;5.88;;;;;14.50;96640.00;;;;8350767;28;20235;-71
2023/07/08 03:24:58;;;;;;;6.97;5.30;;;;;14.40;96646.00;;;;8368513;28;20228;-70
2023/07/08 03:29:01;;;;;;;7.80;5.30;;;;;14.40;96645.00;;;;8371601;28;20791;-70
2023/07/08 03:33:10;;;;;;;9.98;5.60;;;;;14.40;96656.00;;;;8367945;28;20214;-72
2023/07/08 03:37:15;;;;;;;6.32;4.53;;;;;14.30;96662.00;;;;8359980;28;20216;-71
2023/07/08 03:41:20;;;;;;;7.70;5.60;;;;;14.40;96654.00;;;;8361672;28;20234;-71
2023/07/08 03:45:23;;;;;;;8.63;5.80;;;;;14.40;96657.00;;;;8365409;28;20203;-72
2023/07/08 03:49:26;;;;;;;13.27;6.03;;;;;14.30;96653.00;;;;8357012;28;20235;-71
2023/07/08 03:53:32;;;;;;;7.32;5.60;;;;;14.30;96654.00;;;;8373451;28;20592;-71
2023/07/08 03:57:35;;;;;;;9.43;5.50;;;;;14.40;96653.00;;;;8363746;28;20309;-71
2023/07/08 04:01:41;;;;;;;8.05;5.45;;;;;14.40;96655.00;;;;8363572;28;20763;-70
2023/07/08 04:05:47;;;;;;;9.70;5.60;;;;;14.50;96662.00;;;;8362800;28;20200;-72
2023/07/08 04:09:52;;;;;;;8.23;5.32;;;;;14.70;96655.00;;;;8361459;28;20587;-70
2023/07/08 04:13:55;;;;;;;8.30;5.47;;;;;15.00;96660.00;;;;8358735;28;20208;-73
2023/07/08 04:17:58;;;;;;;6.47;5.10;;;;;15.30;96657.00;;;;8360187;28;20200;-72
2023/07/08 04:22:02;;;;;;;7.70;5.20;;;;;15.60;96661.00;;;;8356410;28;20282;-72
2023/07/08 04:26:06;;;;;;;11.48;5.43;;;;;15.90;96674.00;;;;8364126;28;20211;-70
2023/07/08 04:30:22;;;;;;;20.90;5.93;;;;;16.30;96664.00;;;;8353767;28;20807;-70
2023/07/08 04:34:31;;;;;;;8.38;5.43;;;;;16.70;96673.00;;;;8355315;28;20671;-71
2023/07/08 04:38:36;;;;;;;9.55;5.50;;;;;17.20;96674.00;;;;8358155;28;20208;-72
2023/07/08 04:42:47;;;;;;;23.33;15.43;;;;;17.50;96665.00;;;;8358339;28;20201;-71
2023/07/08 04:46:54;;;;;;;10.35;7.05;;;;;17.90;96666.00;;;;8354641;28;20207;-72
2023/07/08 04:51:01;;;;;;;10.27;5.68;;;;;18.30;96665.00;;;;8358009;28;20291;-71
2023/07/08 04:55:10;;;;;;;8.27;5.70;;;;;19.00;96668.00;;;;8357251;28;20257;-71
2023/07/08 04:59:17;;;;;;;14.32;5.57;;;;;19.50;96674.00;;;;8353909;28;20268;-72
2023/07/08 05:03:20;;;;;;;12.70;5.63;;;;;19.90;96666.00;;;;8361205;28;20254;-72
2023/07/08 05:07:24;;;;;;;14.43;5.45;;;;;20.20;96660.00;;;;8362416;28;20216;-72
2023/07/08 05:11:27;;;;;;;8.77;6.25;;;;;20.50;96666.00;;;;8356937;28;20208;-71
2023/07/08 05:15:32;;;;;;;9.93;5.82;;;;;20.60;96673.00;;;;8362430;28;20255;-71
2023/07/08 05:19:38;;;;;;;11.45;5.82;;;;;20.80;96682.00;;;;8358585;28;20252;-72
2023/07/08 05:23:44;;;;;;;8.48;5.63;;;;;21.00;96682.00;;;;8356059;28;20207;-72
2023/07/08 05:27:50;;;;;;;8.15;5.43;;;;;21.20;96674.00;;;;8357856;28;20300;-73
2023/07/08 05:31:58;;;;;;;9.73;5.50;;;;;21.40;96677.00;;;;8362541;28;20246;-72
2023/07/08 05:36:02;;;;;;;10.15;5.45;;;;;21.60;96689.00;;;;8361886;28;20201;-72
2023/07/08 05:40:08;;;;;;;10.02;5.20;;;;;21.80;96681.00;;;;8365236;28;20256;-73
2023/07/08 05:44:11;;;;;;;9.10;4.75;;;;;22.00;96698.00;;;;8359027;28;20222;-70
2023/07/08 05:48:16;;;;;;;9.10;5.15;;;;;22.50;96700.00;;;;8365253;28;20219;-74
2023/07/08 05:52:19;;;;;;;8.48;5.50;;;;;23.20;96706.00;;;;8368248;28;20201;-70
2023/07/08 05:56:23;;;;;;;8.82;5.47;;;;;23.90;96714.00;;;;8365097;28;20636;-73
2023/07/08 06:00:26;;;;;;;8.35;5.10;;;;;24.60;96709.00;;;;8354880;28;20323;-73
2023/07/08 06:04:49;;;;;;;6.93;5.10;;;;;25.40;96716.00;;;;8363229;28;20228;-73
2023/07/08 06:08:57;;;;;;;9.07;5.47;;;;;25.80;96726.00;;;;8362802;28;20287;-72
2023/07/08 06:13:08;;;;;;;5.90;4.65;;;;;26.30;96735.00;;;;8354947;28;20204;-74
2023/07/08 06:17:11;;;;;;;8.70;5.30;;;;;26.90;96731.00;;;;8360873;28;20287;-76
2023/07/08 06:21:16;;;;;;;6.53;5.15;;;;;27.30;96719.00;;;;8355115;28;20330;-72
2023/07/08 06:25:20;;;;;;;6.72;5.25;;;;;27.10;96716.00;;;;8351813;28;20233;-71
2023/07/08 06:29:26;;;;;;;6.65;4.78;;;;;26.70;96711.00;;;;8356989;28;20247;-71
2023/07/08 06:33:29;;;;;;;6.57;4.82;;;;;26.70;96704.00;;;;8356625;28;20368;-73
2023/07/08 06:37:36;;;;;;;6.05;4.95;;;;;27.00;96700.00;;;;8354013;28;20234;-73
2023/07/08 06:41:40;;;;;;;5.95;5.00;;;;;27.30;96709.00;;;;8366183;28;20234;-73
2023/07/08 06:45:45;;;;;;;6.30;4.65;;;;;27.50;96718.00;;;;8362460;28;20196;-76
2023/07/08 06:49:49;;;;;;;6.70;4.75;;;;;28.00;96705.00;;;;8356502;28;20250;-72
2023/07/08 06:53:58;;;;;;;13.35;5.15;;;;;28.40;96697.00;;;;8358955;28;20292;-72
2023/07/08 06:58:03;;;;;;;8.45;4.53;;;;;28.30;96699.00;;;;8354548;28;20208;-74
2023/07/08 07:02:06;;;;;;;10.38;5.07;;;;;28.30;96684.00;;;;8358004;28;20406;-77
2023/07/08 07:06:10;;;;;;;9.73;4.57;;;;;28.20;96688.00;;;;8358713;28;20291;-77
2023/07/08 07:10:15;;;;;;;10.13;4.60;;;;;28.40;96692.00;;;;8359604;28;20242;-75
2023/07/08 07:14:18;;;;;;;10.85;4.70;;;;;28.50;96698.00;;;;8357533;28;20218;-75
2023/07/08 07:18:27;;;;;;;6.35;4.40;;;;;29.00;96705.00;;;;8363746;28;20200;-76
2023/07/08 07:22:31;;;;;;;10.63;4.68;;;;;29.50;96708.00;;;;8358438;28;20461;-76
2023/07/08 07:26:36;;;;;;;4.93;4.20;;;;;29.90;96704.00;;;;8362958;28;20227;-74
2023/07/08 07:30:56;;;;;;;5.30;4.70;;;;;30.10;96707.00;;;;8362956;28;20197;-74
2023/07/08 07:34:59;;;;;;;41.38;6.88;;;;;30.30;96706.00;;;;8355256;28;20631;-77
2023/07/08 07:39:05;;;;;;;5.43;4.57;;;;;30.20;96701.00;;;;8356812;28;20315;-73
2023/07/08 07:43:09;;;;;;;12.90;4.75;;;;;30.30;96704.00;;;;8362232;28;20858;-77
2023/07/08 07:47:19;;;;;;;6.35;4.35;;;;;30.10;96711.00;;;;8353073;28;20296;-75
2023/07/08 07:51:26;;;;;;;6.25;4.55;;;;;30.20;96717.00;;;;8362188;28;20211;-73
2023/07/08 07:55:29;;;;;;;8.13;4.68;;;;;30.60;96725.00;;;;8359408;28;20640;-77
2023/07/08 07:59:34;;;;;;;4.40;4.00;;;;;31.20;96725.00;;;;8353691;28;20321;-71
2023/07/08 08:03:42;;;;;;;5.28;4.43;;;;;31.50;96732.00;;;;8355550;28;20648;-76
2023/07/08 08:07:47;;;;;;;5.78;4.97;;;;;31.50;96730.00;;;;8345323;28;20197;-76
2023/07/08 08:11:51;;;;;;;5.55;4.47;;;;;32.10;96728.00;;;;8352541;28;20204;-75
2023/07/08 08:15:59;;;;;;;7.20;4.30;;;;;32.70;96733.00;;;;8366250;28;20207;-75
2023/07/08 08:20:03;;;;;;;8.63;4.38;;;;;32.60;96735.00;;;;8363596;28;20242;-74
2023/07/08 08:24:12;;;;;;;7.35;4.28;;;;;33.20;96734.00;;;;8361878;28;20300;-73
2023/07/08 08:28:19;;;;;;;4.80;3.88;;;;;33.50;96731.00;;;;8362400;28;20209;-75
2023/07/08 08:32:26;;;;;;;5.32;4.03;;;;;33.20;96739.00;;;;8359154;28;20223;-73
2023/07/08 08:36:35;;;;;;;7.53;5.22;;;;;33.00;96744.00;;;;8361781;28;20638;-73
2023/07/08 08:40:41;;;;;;;5.50;4.05;;;;;33.30;96743.00;;;;8360824;28;20229;-75
2023/07/08 08:44:45;;;;;;;8.10;4.07;;;;;34.30;96741.00;;;;8360643;28;21122;-76
2023/07/08 08:48:56;;;;;;;6.50;3.78;;;;;34.90;96730.00;;;;8365174;28;20232;-78
2023/07/08 08:53:03;;;;;;;8.32;4.10;;;;;34.90;96744.00;;;;8361555;28;20292;-78
2023/07/08 08:57:14;;;;;;;6.70;3.60;;;;;35.10;96742.00;;;;8364869;28;20638;-76
2023/07/08 09:01:18;;;;;;;5.03;4.13;;;;;35.80;96735.00;;;;8360846;28;20462;-77
2023/07/08 09:05:23;;;;;;;6.78;5.22;;;;;35.70;96741.00;;;;8358695;28;20228;-74
2023/07/08 09:09:36;;;;;;;5.70;3.90;;;;;36.00;96747.00;;;;8360722;28;20209;-75
2023/07/08 09:13:43;;;;;;;7.15;4.20;;;;;36.50;96748.00;;;;8365758;28;20201;-73
2023/07/08 09:17:48;;;;;;;7.28;3.80;;;;;36.70;96733.00;;;;8365206;28;20235;-75
2023/07/08 09:22:00;;;;;;;5.15;4.20;;;;;36.90;96734.00;;;;8357642;28;20232;-72
2023/07/08 09:26:11;;;;;;;6.13;3.90;;;;;36.20;96727.00;;;;8354138;28;20321;-73
2023/07/08 09:30:15;;;;;;;3.38;3.17;;;;;36.70;96735.00;;;;8376643;28;20321;-75
2023/07/08 09:34:25;;;;;;;3.97;3.45;;;;;36.60;96733.00;;;;8356083;28;20220;-78
2023/07/08 09:38:36;;;;;;;3.80;3.40;;;;;36.20;96730.00;;;;8356895;28;20203;-72
2023/07/08 09:42:45;;;;;;;7.95;4.18;;;;;36.00;96741.00;;;;8357343;28;20239;-74
2023/07/08 09:46:52;;;;;;;5.65;4.20;;;;;35.40;96739.00;;;;8360099;28;20896;-71
2023/07/08 09:50:58;;;;;;;6.82;3.80;;;;;35.60;96740.00;;;;8364968;28;20239;-71
2023/07/08 09:55:09;;;;;;;5.25;3.72;;;;;35.10;96731.00;;;;8363017;28;20605;-73
2023/07/08 09:59:14;;;;;;;4.18;3.78;;;;;34.70;96739.00;;;;8358751;28;20336;-71
2023/07/08 10:03:26;;;;;;;5.07;4.00;;;;;34.50;96748.00;;;;8362909;28;20244;-75
2023/07/08 10:07:31;;;;;;;5.72;4.03;;;;;34.90;96757.00;;;;8354275;28;20303;-70
2023/07/08 10:11:50;;;;;;;5.05;4.38;;;;;35.10;96759.00;;;;8360557;28;20200;-70
2023/07/08 10:15:58;;;;;;;6.32;4.25;;;;;35.10;96763.00;;;;8361587;28;20291;-71
2023/07/08 10:20:01;;;;;;;4.20;3.70;;;;;35.20;96764.00;;;;8361415;28;20205;-71
2023/07/08 10:24:22;;;;;;;6.28;3.63;;;;;35.60;96764.00;;;;8360970;28;20263;-70
2023/07/08 10:28:35;;;;;;;6.78;4.13;;;;;35.50;96765.00;;;;8359312;28;20279;-70
2023/07/08 10:32:54;;;;;;;5.18;4.07;;;;;34.90;96765.00;;;;8357653;28;20201;-71
2023/07/08 10:37:06;;;;;;;5.28;3.95;;;;;34.50;96768.00;;;;8360341;28;20202;-68
2023/07/08 10:41:17;;;;;;;4.20;3.80;;;;;34.70;96769.00;;;;8363209;28;20228;-68
2023/07/08 10:45:31;;;;;;;7.50;3.90;;;;;35.70;96765.00;;;;8364792;28;20617;-70
2023/07/08 10:49:55;;;;;;;5.40;4.03;;;;;36.40;96769.00;;;;8367839;28;20979;-70
2023/07/08 10:54:23;;;;;;;4.05;3.58;;;;;37.40;96769.00;;;;8351989;28;20215;-69
2023/07/08 10:58:51;;;;;;;7.80;4.00;;;;;37.90;96765.00;;;;8356691;28;20795;-70
2023/07/08 11:03:18;;;;;;;4.93;4.10;;;;;38.30;96764.00;;;;8358293;28;20286;-68
2023/07/08 11:07:33;;;;;;;4.05;3.65;;;;;39.20;96766.00;;;;8356482;28;20303;-69
2023/07/08 11:11:42;;;;;;;3.78;3.38;;;;;39.00;96768.00;;;;8358000;28;20303;-70
2023/07/08 11:15:54;;;;;;;6.55;3.83;;;;;39.40;96760.00;;;;8357912;28;20236;-68
2023/07/08 11:20:12;;;;;;;4.30;3.63;;;;;39.90;96761.00;;;;8358580;28;20200;-67
2023/07/08 11:24:25;;;;;;;5.18;3.80;;;;;39.10;96763.00;;;;8352526;28;20844;-72
2023/07/08 11:28:31;;;;;;;5.22;4.00;;;;;38.00;96762.00;;;;8330765;28;20235;-76
2023/07/08 11:32:37;;;;;;;4.40;4.00;;;;;37.10;96759.00;;;;8345636;28;20263;-73
2023/07/08 11:36:43;;;;;;;5.47;4.22;;;;;36.50;96752.00;;;;8350316;28;20205;-73
2023/07/08 11:40:57;;;;;;;5.95;4.18;;;;;36.10;96758.00;;;;8353420;28;20201;-72
2023/07/08 11:45:01;;;;;;;5.60;4.32;;;;;35.90;96758.00;;;;8349370;28;20196;-72
2023/07/08 11:49:14;;;;;;;4.60;3.72;;;;;35.60;96749.00;;;;8351319;28;20208;-73
2023/07/08 11:53:48;;;;;;;5.60;4.00;;;;;35.30;96754.00;;;;8388872;28;20243;-74
2023/07/08 11:58:10;;;;;;;8.40;4.20;;;;;35.20;96743.00;;;;8405249;28;20200;-76
2023/07/08 12:02:22;;;;;;;5.72;3.83;;;;;35.10;96750.00;;;;8408908;28;20253;-74
2023/07/08 12:06:52;;;;;;;4.70;4.13;;;;;34.90;96749.00;;;;8408504;28;20200;-73
2023/07/08 12:11:13;;;;;;;9.32;4.53;;;;;34.60;96749.00;;;;8406574;28;20200;-75
2023/07/08 12:15:21;;;;;;;4.40;4.00;;;;;34.30;96741.00;;;;8402310;28;20196;-75
2023/07/08 12:19:31;;;;;;;5.82;4.28;;;;;34.10;96736.00;;;;8400776;28;20201;-72
2023/07/08 12:23:44;;;;;;;6.35;4.00;;;;;34.30;96743.00;;;;8399871;28;20216;-73
2023/07/08 12:27:51;;;;;;;4.38;3.95;;;;;34.20;96742.00;;;;8400253;28;20291;-73
2023/07/08 12:31:57;;;;;;;5.28;4.10;;;;;34.70;96739.00;;;;8401812;28;20394;-73
2023/07/08 12:36:04;;;;;;;6.20;4.22;;;;;35.90;96739.00;;;;8398977;28;20279;-74
2023/07/08 12:40:12;;;;;;;7.60;4.25;;;;;37.10;96727.00;;;;8401711;28;20283;-74
2023/07/08 12:44:23;;;;;;;5.13;4.22;;;;;37.80;96728.00;;;;8401381;28;20259;-73
2023/07/08 12:48:26;;;;;;;6.78;4.07;;;;;37.00;96731.00;;;;8401685;28;20236;-73
2023/07/08 12:52:32;;;;;;;4.10;3.70;;;;;36.20;96730.00;;;;8400716;28;20287;-74
2023/07/08 12:56:36;;;;;;;4.28;3.72;;;;;35.70;96724.00;;;;8401484;28;20605;-73
2023/07/08 13:00:44;;;;;;;6.78;3.83;;;;;35.50;96727.00;;;;8400303;28;20200;-73
2023/07/08 13:04:50;;;;;;;7.53;4.40;;;;;35.20;96721.00;;;;8399188;28;20236;-73
2023/07/08 13:08:56;;;;;;;5.65;4.38;;;;;34.80;96730.00;;;;8399127;28;20196;-73
2023/07/08 13:13:02;;;;;;;5.30;4.25;;;;;34.90;96736.00;;;;8400811;28;20541;-74
2023/07/08 13:17:09;;;;;;;6.75;3.88;;;;;35.00;96729.00;;;;8400072;28;20196;-74
2023/07/08 13:21:15;;;;;;;6.10;4.30;;;;;35.10;96735.00;;;;8400419;28;20692;-74
2023/07/08 13:25:20;;;;;;;5.28;3.83;;;;;35.10;96726.00;;;;8399168;28;20208;-73
2023/07/08 13:29:29;;;;;;;8.60;4.20;;;;;35.50;96733.00;;;;8399407;28;20518;-73
2023/07/08 13:33:35;;;;;;;4.65;4.10;;;;;36.20;96728.00;;;;8399700;28;20282;-74
2023/07/08 13:37:48;;;;;;;5.72;4.22;;;;;37.00;96730.00;;;;8400299;28;20295;-74
2023/07/08 13:41:51;;;;;;;5.30;4.25;;;;;37.10;96735.00;;;;8399564;28;20212;-74
2023/07/08 13:45:57;;;;;;;7.45;4.28;;;;;36.60;96731.00;;;;8399793;28;20290;-73
2023/07/08 13:50:21;;;;;;;6.50;4.85;;;;;36.30;96732.00;;;;8398997;28;20192;-74
2023/07/08 13:54:27;;;;;;;7.13;3.97;;;;;36.30;96722.00;;;;8366574;28;20200;-74
2023/07/08 13:58:33;;;;;;;5.75;3.97;;;;;36.50;96727.00;;;;8365039;28;20291;-74
2023/07/08 14:02:39;;;;;;;7.00;4.20;;;;;36.30;96725.00;;;;8365237;28;20714;-72
2023/07/08 14:06:44;;;;;;;4.65;4.10;;;;;36.30;96728.00;;;;8365789;28;20618;-74
2023/07/08 14:10:47;;;;;;;4.65;4.07;;;;;36.90;96726.00;;;;8365564;28;20542;-74
2023/07/08 14:14:51;;;;;;;6.07;3.97;;;;;37.60;96717.00;;;;8365167;28;20197;-74
2023/07/08 14:19:01;;;;;;;4.53;3.70;;;;;38.60;96716.00;;;;8364239;28;20201;-74
2023/07/08 14:23:05;;;;;;;5.45;4.07;;;;;39.40;96718.00;;;;8362247;28;20216;-74
2023/07/08 14:27:13;;;;;;;7.47;4.00;;;;;40.10;96707.00;;;;8363211;28;20311;-73
2023/07/08 14:31:25;;;;;;;5.78;4.47;;;;;40.40;96703.00;;;;8362651;28;20253;-74
2023/07/08 14:35:30;;;;;;;6.20;4.15;;;;;41.00;96700.00;;;;8362880;28;20197;-75
2023/07/08 14:39:34;;;;;;;7.22;4.13;;;;;40.70;96705.00;;;;8365332;28;20519;-75
2023/07/08 14:43:39;;;;;;;3.85;3.47;;;;;40.00;96701.00;;;;8363719;28;20267;-73
2023/07/08 14:47:44;;;;;;;5.20;4.15;;;;;39.30;96704.00;;;;8365244;28;20562;-73
2023/07/08 14:51:48;;;;;;;7.28;4.57;;;;;38.60;96709.00;;;;8362367;28;20232;-74
2023/07/08 14:55:55;;;;;;;7.75;4.25;;;;;38.10;96700.00;;;;8364713;28;20613;-74
2023/07/08 14:59:58;;;;;;;7.30;4.20;;;;;38.60;96705.00;;;;8363493;28;20235;-73
2023/07/08 15:04:01;;;;;;;4.93;4.28;;;;;38.70;96705.00;;;;8364753;28;20242;-74
2023/07/08 15:08:05;;;;;;;6.28;4.25;;;;;38.60;96697.00;;;;8364622;28;20645;-73
2023/07/08 15:12:12;;;;;;;10.50;4.25;;;;;38.20;96693.00;;;;8363580;28;20208;-73
2023/07/08 15:16:21;;;;;;;4.78;4.28;;;;;37.90;96693.00;;;;8363614;28;20225;-74
2023/07/08 15:20:25;;;;;;;8.23;4.97;;;;;37.70;96693.00;;;;8363242;28;20288;-73
2023/07/08 15:24:28;;;;;;;6.57;4.80;;;;;37.80;96695.00;;;;8366032;28;20557;-72
2023/07/08 15:28:47;;;;;;;5.55;4.70;;;;;38.10;96686.00;;;;8364186;28;20293;-72
2023/07/08 15:32:51;;;;;;;5.78;4.38;;;;;38.00;96687.00;;;;8368745;28;20197;-73
2023/07/08 15:36:58;;;;;;;5.00;4.50;;;;;38.40;96679.00;;;;8369032;28;20258;-73
2023/07/08 15:41:20;;;;;;;5.00;4.32;;;;;38.80;96680.00;;;;8370369;28;20292;-73
2023/07/08 15:45:29;;;;;;;6.15;4.63;;;;;39.10;96676.00;;;;8371236;28;20260;-73
2023/07/08 15:49:33;;;;;;;4.78;4.30;;;;;39.50;96677.00;;;;8371225;28;20232;-73
2023/07/08 15:53:40;;;;;;;7.72;4.70;;;;;39.60;96673.00;;;;8368734;28;20224;-74
2023/07/08 15:57:47;;;;;;;4.32;3.92;;;;;39.90;96674.00;;;;8368688;28;20240;-73
2023/07/08 16:01:51;;;;;;;5.57;4.18;;;;;39.80;96670.00;;;;8369988;28;20287;-73
2023/07/08 16:06:01;;;;;;;6.85;4.55;;;;;39.00;96676.00;;;;8364658;28;20323;-72
2023/07/08 16:10:04;;;;;;;5.35;4.25;;;;;39.00;96679.00;;;;8366023;28;20628;-73
2023/07/08 16:14:12;;;;;;;7.22;4.00;;;;;38.80;96678.00;;;;8367891;28;20197;-73
2023/07/08 16:18:18;;;;;;;6.63;4.45;;;;;39.00;96672.00;;;;8369065;28;20630;-74
2023/07/08 16:22:21;;;;;;;6.15;4.18;;;;;39.30;96684.00;;;;8368066;28;20622;-73
2023/07/08 16:26:29;;;;;;;6.18;4.10;;;;;39.60;96678.00;;;;8368526;28;20321;-73
2023/07/08 16:30:35;;;;;;;6.45;4.20;;;;;39.60;96684.00;;;;8368541;28;20192;-73
2023/07/08 16:34:40;;;;;;;4.47;4.07;;;;;39.60;96678.00;;;;8367855;28;20258;-74
2023/07/08 16:38:45;;;;;;;4.80;4.15;;;;;39.80;96671.00;;;;8366694;28;20196;-77
2023/07/08 16:42:51;;;;;;;5.30;4.22;;;;;40.00;96659.00;;;;8367125;28;20228;-77
2023/07/08 16:46:57;;;;;;;5.15;4.68;;;;;40.30;96669.00;;;;8367593;28;20659;-76
2023/07/08 16:51:02;;;;;;;7.85;4.63;;;;;40.50;96665.00;;;;8349755;28;20219;-77
2023/07/08 16:55:10;;;;;;;5.00;4.50;;;;;40.80;96667.00;;;;8367746;28;20207;-77
2023/07/08 16:59:16;;;;;;;6.60;4.40;;;;;40.40;96666.00;;;;8368277;28;20291;-77
2023/07/08 17:03:20;;;;;;;5.95;4.45;;;;;40.20;96666.00;;;;8367462;28;20278;-77
2023/07/08 17:07:26;;;;;;;6.45;4.35;;;;;40.40;96671.00;;;;8366955;28;20279;-77
2023/07/08 17:11:29;;;;;;;11.63;4.72;;;;;40.70;96669.00;;;;8366574;28;20209;-77
2023/07/08 17:15:33;;;;;;;4.93;4.38;;;;;40.80;96666.00;;;;8367903;28;20693;-77
2023/07/08 17:19:39;;;;;;;7.05;4.18;;;;;41.00;96669.00;;;;8367364;28;20625;-78
2023/07/08 17:23:45;;;;;;;4.40;4.00;;;;;41.10;96680.00;;;;8366978;28;20231;-77
2023/07/08 17:27:49;;;;;;;6.28;4.57;;;;;41.10;96672.00;;;;8367766;28;20216;-77
2023/07/08 17:31:56;;;;;;;5.05;4.07;;;;;41.20;96674.00;;;;8367699;28;20196;-77
2023/07/08 17:36:10;;;;;;;5.28;3.90;;;;;41.20;96670.00;;;;8363862;28;20207;-77
2023/07/08 17:40:19;;;;;;;8.95;4.35;;;;;41.30;96668.00;;;;8367027;28;20219;-77
2023/07/08 17:44:25;;;;;;;5.50;3.90;;;;;41.20;96672.00;;;;8365129;28;20200;-78
2023/07/08 17:48:29;;;;;;;4.80;4.18;;;;;41.00;96670.00;;;;8366457;28;20283;-77
2023/07/08 17:52:32;;;;;;;6.93;4.93;;;;;40.70;96682.00;;;;8364234;28;20246;-77
2023/07/08 17:56:43;;;;;;;5.50;4.25;;;;;40.40;96678.00;;;;8363477;28;20237;-78
2023/07/08 18:00:49;;;;;;;5.32;4.07;;;;;39.30;96677.00;;;;8364159;28;20660;-80
2023/07/08 18:04:54;;;;;;;8.48;4.45;;;;;37.70;96675.00;;;;8365706;28;20225;-81
2023/07/08 18:08:57;;;;;;;13.13;5.43;;;;;35.90;96677.00;;;;8365520;28;20203;-81
2023/07/08 18:13:07;;;;;;;5.72;4.13;;;;;34.50;96673.00;;;;8363772;28;20193;-80
2023/07/08 18:17:12;;;;;;;5.18;4.22;;;;;33.40;96685.00;;;;8364769;28;20260;-80
2023/07/08 18:21:17;;;;;;;9.38;4.35;;;;;32.60;96680.00;;;;8365171;28;20220;-78
2023/07/08 18:25:24;;;;;;;7.28;4.85;;;;;31.60;96686.00;;;;8364881;28;20291;-79
2023/07/08 18:29:29;;;;;;;8.05;4.70;;;;;30.60;96684.00;;;;8365033;28;20201;-78
2023/07/08 18:33:34;;;;;;;11.15;5.32;;;;;29.80;96682.00;;;;8365031;28;20703;-79
2023/07/08 18:37:40;;;;;;;8.77;4.50;;;;;29.20;96681.00;;;;8363449;28;20239;-78
2023/07/08 18:41:48;;;;;;;24.33;4.85;;;;;28.50;96683.00;;;;8362681;28;20284;-79
2023/07/08 18:45:53;;;;;;;11.95;6.03;;;;;28.00;96687.00;;;;8364276;28;20200;-79
2023/07/08 18:49:59;;;;;;;32.25;6.60;;;;;27.50;96682.00;;;;8364534;28;20287;-78
2023/07/08 18:54:05;;;;;;;89.55;10.70;;;;;27.10;96685.00;;;;8364529;28;20256;-78
2023/07/08 18:58:12;;;;;;;54.65;8.63;;;;;26.60;96687.00;;;;8363509;28;20356;-78
2023/07/08 19:02:33;;;;;;;60.50;8.80;;;;;26.10;96695.00;;;;8364630;28;20204;-79
2023/07/08 19:06:37;;;;;;;63.85;9.98;;;;;25.70;96701.00;;;;8364696;28;20232;-78
2023/07/08 19:10:40;;;;;;;75.68;10.18;;;;;25.40;96702.00;;;;8363686;28;20224;-78
2023/07/08 19:14:48;;;;;;;107.70;11.55;;;;;25.00;96703.00;;;;8362999;28;20228;-78
2023/07/08 19:18:54;;;;;;;76.28;10.93;;;;;24.70;96701.00;;;;8363321;28;20299;-78
2023/07/08 19:22:57;;;;;;;50.72;9.90;;;;;24.40;96702.00;;;;8363958;28;20196;-78
2023/07/08 19:27:03;;;;;;;76.10;11.00;;;;;24.00;96706.00;;;;8363512;28;20645;-79
2023/07/08 19:31:19;;;;;;;55.80;9.75;;;;;23.70;96711.00;;;;8362079;28;20199;-78
2023/07/08 19:35:37;;;;;;;29.77;8.18;;;;;23.40;96713.00;;;;8362940;28;20216;-78
2023/07/08 19:39:40;;;;;;;50.17;9.77;;;;;23.20;96711.00;;;;8363002;28;20591;-75
2023/07/08 19:43:44;;;;;;;23.85;8.68;;;;;23.10;96714.00;;;;8364020;28;20227;-75
2023/07/08 19:47:48;;;;;;;34.88;12.10;;;;;22.90;96714.00;;;;8363378;28;20193;-76
2023/07/08 19:51:54;;;;;;;34.08;8.95;;;;;22.70;96712.00;;;;8362677;28;20192;-75
2023/07/08 19:55:59;;;;;;;26.42;9.30;;;;;22.50;96716.00;;;;8363749;28;20227;-76
2023/07/08 20:00:03;;;;;;;24.83;7.80;;;;;22.30;96713.00;;;;8363718;28;20204;-74
2023/07/08 20:04:07;;;;;;;15.00;6.18;;;;;22.10;96718.00;;;;8363080;28;20224;-75
2023/07/08 20:08:26;;;;;;;28.02;7.63;;;;;21.90;96707.00;;;;8362244;28;20236;-74
2023/07/08 20:12:29;;;;;;;13.85;6.65;;;;;21.80;96713.00;;;;8366754;28;20221;-75
2023/07/08 20:16:34;;;;;;;13.52;5.88;;;;;21.60;96711.00;;;;8369678;28;20315;-75
2023/07/08 20:20:38;;;;;;;11.50;6.50;;;;;21.50;96706.00;;;;8369957;28;20193;-74
2023/07/08 20:24:45;;;;;;;9.25;5.65;;;;;21.50;96715.00;;;;8367436;28;20197;-74
2023/07/08 20:28:52;;;;;;;12.02;6.05;;;;;21.40;96709.00;;;;8368997;28;20291;-75
2023/07/08 20:33:01;;;;;;;16.27;5.95;;;;;21.30;96715.00;;;;8367829;28;20197;-79
2023/07/08 20:37:09;;;;;;;11.98;5.97;;;;;21.20;96728.00;;;;8368574;28;20539;-78